Time;durP1;ratioP1;P1;durP2;ratioP2;P2;SDS_P1;SDS_P2;PMS_P1;PMS_P2;Temp;Humidity;BMP_temperature;BMP_pressure;BME280_temperature;BME280_humidity;BME280_pressure;Samples;Min_cycle;Max_cycle;Signal;HPM_P1;HPM_P2
2022/11/19 00:01:56;;;;;;;25.05;19.20;;;8.70;92.10;;;;;;5051500;28;20578;-78
2022/11/19 00:04:22;;;;;;;24.42;19.13;;;8.60;92.30;;;;;;5050517;28;20032;-77
2022/11/19 00:06:49;;;;;;;23.23;18.98;;;8.60;92.30;;;;;;5043872;28;20037;-76
2022/11/19 00:09:15;;;;;;;22.55;18.58;;;8.60;92.40;;;;;;5052593;28;20043;-79
2022/11/19 00:14:25;;;;;;;23.67;18.60;;;8.60;92.60;;;;;;5069993;28;20072;-77
2022/11/19 00:16:51;;;;;;;23.48;17.15;;;8.70;92.70;;;;;;5069605;28;20041;-76
2022/11/19 00:19:16;;;;;;;20.48;17.08;;;8.80;92.60;;;;;;5047335;28;20057;-79
2022/11/19 00:21:42;;;;;;;24.73;17.63;;;8.80;92.60;;;;;;5053007;28;20052;-77
2022/11/19 00:24:09;;;;;;;22.98;18.17;;;8.80;92.60;;;;;;5059580;28;20025;-78
2022/11/19 00:26:35;;;;;;;19.17;17.05;;;8.90;92.60;;;;;;5051428;28;20044;-78
2022/11/19 00:29:00;;;;;;;19.77;15.65;;;8.90;92.50;;;;;;5054624;28;20041;-78
2022/11/19 00:31:26;;;;;;;22.27;16.65;;;8.90;92.50;;;;;;5052897;28;20056;-79
2022/11/19 00:33:53;;;;;;;20.27;16.38;;;8.90;92.50;;;;;;5048893;28;20497;-78
2022/11/19 00:36:19;;;;;;;21.75;15.95;;;8.90;92.40;;;;;;5054818;28;20536;-79
2022/11/19 00:38:45;;;;;;;18.77;15.60;;;8.90;92.40;;;;;;5049393;28;20037;-77
2022/11/19 00:41:11;;;;;;;21.08;15.95;;;8.90;92.40;;;;;;5048645;28;20177;-77
2022/11/19 00:43:45;;;;;;;20.58;15.45;;;8.90;92.40;;;;;;5053251;28;20388;-77
2022/11/19 00:46:12;;;;;;;20.15;15.93;;;9.00;92.30;;;;;;5054938;28;20529;-79
2022/11/19 00:48:38;;;;;;;21.60;15.07;;;8.90;92.20;;;;;;5052311;28;20033;-78
2022/11/19 00:51:05;;;;;;;17.05;13.30;;;9.00;92.20;;;;;;5049888;28;20075;-76
2022/11/19 00:53:30;;;;;;;19.20;14.90;;;9.00;92.20;;;;;;5050964;28;20556;-78
2022/11/19 00:56:00;;;;;;;17.40;13.77;;;9.00;92.10;;;;;;5049009;28;20131;-78
2022/11/19 00:58:26;;;;;;;19.45;15.75;;;9.00;92.10;;;;;;5048776;28;20045;-79
2022/11/19 01:00:52;;;;;;;23.65;18.77;;;9.00;92.10;;;;;;5051776;28;20051;-78
2022/11/19 01:03:17;;;;;;;22.45;15.45;;;9.00;91.90;;;;;;5055951;28;20045;-78
2022/11/19 01:05:43;;;;;;;15.63;11.90;;;9.00;91.80;;;;;;5055860;28;20037;-78
2022/11/19 01:08:09;;;;;;;13.57;10.32;;;9.00;91.70;;;;;;5050070;28;20453;-79
2022/11/19 01:10:35;;;;;;;12.77;9.05;;;9.00;91.70;;;;;;5054065;28;20025;-78
2022/11/19 01:15:49;;;;;;;12.00;8.52;;;8.90;91.70;;;;;;5048312;28;20496;-77
2022/11/19 01:18:16;;;;;;;12.15;8.73;;;8.80;91.60;;;;;;5048773;28;20036;-77
2022/11/19 01:20:42;;;;;;;11.50;7.97;;;8.90;91.70;;;;;;5056306;28;20044;-76
2022/11/19 01:23:08;;;;;;;12.18;7.63;;;8.90;91.70;;;;;;5054455;28;20494;-78
2022/11/19 01:25:35;;;;;;;10.10;7.85;;;8.90;91.80;;;;;;5054958;28;20067;-79
2022/11/19 01:28:00;;;;;;;13.18;7.25;;;8.90;91.90;;;;;;5050337;28;20148;-79
2022/11/19 01:30:26;;;;;;;10.27;7.53;;;9.00;91.90;;;;;;5046106;28;20258;-79
2022/11/19 01:32:52;;;;;;;10.00;6.45;;;8.90;91.90;;;;;;5054232;28;20037;-78
2022/11/19 01:35:17;;;;;;;9.95;6.75;;;8.90;91.90;;;;;;5054678;28;20583;-78
2022/11/19 01:37:43;;;;;;;11.43;7.07;;;9.00;92.00;;;;;;5051149;28;20049;-79
2022/11/19 01:40:09;;;;;;;11.63;7.43;;;8.90;91.90;;;;;;5046980;28;20033;-80
2022/11/19 01:42:50;;;;;;;11.75;8.23;;;9.00;92.00;;;;;;5046061;28;20055;-79
2022/11/19 01:45:32;;;;;;;10.27;7.60;;;9.00;92.00;;;;;;5049059;28;20530;-79
2022/11/19 01:48:14;;;;;;;12.23;9.15;;;9.00;92.00;;;;;;5052454;28;20029;-77
2022/11/19 01:50:54;;;;;;;11.43;9.00;;;9.00;92.10;;;;;;5049104;28;20091;-77
2022/11/19 01:53:23;;;;;;;14.88;11.77;;;9.00;92.10;;;;;;5064092;28;20047;-78
2022/11/19 01:55:49;;;;;;;13.60;10.65;;;9.00;92.20;;;;;;5049876;28;20116;-80
2022/11/19 01:58:19;;;;;;;12.57;10.43;;;9.00;92.10;;;;;;5050990;28;20079;-79
2022/11/19 02:00:46;;;;;;;14.93;11.80;;;9.00;92.20;;;;;;5053626;28;20400;-78
2022/11/19 02:03:14;;;;;;;11.90;10.10;;;8.90;92.10;;;;;;5047307;28;20116;-78
2022/11/19 02:05:41;;;;;;;14.75;11.30;;;8.90;92.20;;;;;;5057322;28;20584;-79
2022/11/19 02:08:28;;;;;;;12.05;9.85;;;8.80;92.30;;;;;;5052481;28;20401;-78
2022/11/19 02:11:16;;;;;;;13.98;10.20;;;8.80;92.30;;;;;;5044281;28;20038;-77
2022/11/19 02:13:47;;;;;;;12.85;9.70;;;8.70;92.30;;;;;;5025907;28;20041;-78
2022/11/19 02:16:39;;;;;;;11.95;8.13;;;8.70;92.20;;;;;;5045452;28;20067;-79
2022/11/19 02:19:43;;;;;;;11.82;7.88;;;8.60;92.40;;;;;;5039825;28;20090;-77
2022/11/19 02:23:00;;;;;;;9.85;6.30;;;8.60;92.30;;;;;;5056716;28;20056;-79
2022/11/19 02:25:37;;;;;;;9.95;6.60;;;8.50;92.30;;;;;;5002824;28;20369;-77
2022/11/19 02:28:30;;;;;;;9.57;6.95;;;8.40;92.40;;;;;;5041507;28;20048;-77
2022/11/19 02:31:07;;;;;;;9.75;6.25;;;8.40;92.40;;;;;;5054542;28;20061;-80
2022/11/19 02:34:05;;;;;;;11.10;6.30;;;8.30;92.40;;;;;;5048851;28;20044;-76
2022/11/19 02:36:55;;;;;;;8.80;6.10;;;8.30;92.50;;;;;;5033227;28;20170;-77
2022/11/19 02:39:37;;;;;;;9.80;6.05;;;8.30;92.60;;;;;;5050039;28;20140;-78
2022/11/19 02:42:11;;;;;;;8.55;5.85;;;8.30;92.60;;;;;;5051797;28;20037;-77
2022/11/19 02:44:58;;;;;;;9.02;5.60;;;8.30;92.60;;;;;;5056887;28;20060;-79
2022/11/19 02:47:56;;;;;;;8.00;5.35;;;8.30;92.70;;;;;;5046726;28;20143;-77
2022/11/19 02:50:33;;;;;;;8.38;5.65;;;8.40;92.60;;;;;;5051679;28;20037;-76
2022/11/19 02:53:03;;;;;;;9.70;5.55;;;8.50;92.70;;;;;;5054306;28;20432;-78
2022/11/19 02:55:28;;;;;;;9.50;5.32;;;8.50;92.60;;;;;;5049239;28;20091;-79
2022/11/19 03:04:28;;;;;;;9.98;5.57;;;8.60;92.60;;;;;;5046453;28;20522;-78
2022/11/19 03:06:31;;;;;;;11.23;6.10;;;8.60;92.60;;;;;;5044408;28;20511;-78
2022/11/19 03:08:57;;;;;;;9.63;5.82;;;8.60;92.50;;;;;;5053729;28;20033;-79
2022/11/19 03:11:30;;;;;;;11.52;6.53;;;8.60;92.60;;;;;;5046113;28;20044;-78
2022/11/19 03:17:30;;;;;;;12.68;6.70;;;8.70;92.70;;;;;;5046150;28;20047;-78
2022/11/19 03:19:57;;;;;;;11.05;6.55;;;8.70;92.60;;;;;;5048077;28;20064;-78
2022/11/19 03:22:39;;;;;;;10.98;7.30;;;8.70;92.70;;;;;;5044682;28;20119;-77
2022/11/19 03:25:27;;;;;;;12.60;7.63;;;8.80;92.70;;;;;;5043921;28;20419;-77
2022/11/19 03:27:58;;;;;;;11.98;7.90;;;8.70;92.60;;;;;;5048389;28;20037;-78
2022/11/19 03:30:26;;;;;;;11.70;7.68;;;8.80;92.70;;;;;;5044951;28;20044;-79
2022/11/19 03:33:05;;;;;;;11.68;7.85;;;8.70;92.70;;;;;;5062693;28;20059;-76
2022/11/19 03:35:42;;;;;;;15.25;9.13;;;8.80;92.70;;;;;;5047453;28;20040;-76
2022/11/19 03:38:13;;;;;;;14.45;8.95;;;8.80;92.70;;;;;;5045432;28;20488;-79
2022/11/19 03:40:41;;;;;;;11.60;8.38;;;8.80;92.70;;;;;;5050499;28;20040;-77
2022/11/19 03:43:11;;;;;;;13.85;8.77;;;8.80;92.80;;;;;;5042969;28;20388;-76
2022/11/19 03:45:42;;;;;;;12.60;8.57;;;8.80;92.80;;;;;;5044440;28;20026;-78
2022/11/19 03:48:08;;;;;;;13.25;9.35;;;8.80;92.70;;;;;;5046200;28;20051;-76
2022/11/19 03:50:41;;;;;;;14.95;9.13;;;8.80;92.80;;;;;;5043052;28;20032;-77
2022/11/19 03:53:07;;;;;;;11.27;8.90;;;8.80;92.80;;;;;;5044545;28;20599;-76
2022/11/19 03:55:38;;;;;;;13.10;10.20;;;8.80;92.80;;;;;;5048719;28;20033;-78
2022/11/19 03:58:06;;;;;;;16.23;11.27;;;8.80;92.80;;;;;;5044568;28;20097;-78
2022/11/19 04:00:32;;;;;;;16.42;10.55;;;8.80;92.80;;;;;;5046157;28;20059;-77
2022/11/19 04:02:58;;;;;;;15.68;11.73;;;8.80;92.80;;;;;;5046410;28;20114;-78
2022/11/19 04:05:25;;;;;;;16.38;11.35;;;8.80;92.80;;;;;;5048276;28;20389;-78
2022/11/19 04:07:50;;;;;;;16.20;12.40;;;8.80;92.90;;;;;;5053518;28;20117;-78
2022/11/19 04:10:16;;;;;;;15.50;11.30;;;8.90;92.90;;;;;;5070549;28;20477;-77
2022/11/19 04:12:41;;;;;;;17.38;12.15;;;8.90;93.00;;;;;;5049124;28;20122;-77
2022/11/19 04:15:11;;;;;;;15.23;11.40;;;8.90;93.00;;;;;;5061382;28;20064;-76
2022/11/19 04:17:36;;;;;;;16.45;11.15;;;8.90;93.00;;;;;;5056077;28;20055;-78
2022/11/19 04:20:04;;;;;;;20.10;11.85;;;8.90;93.10;;;;;;5051947;28;20037;-78
2022/11/19 04:22:29;;;;;;;17.65;11.68;;;8.90;93.10;;;;;;5048555;28;20111;-79
2022/11/19 04:24:55;;;;;;;15.65;11.63;;;8.90;93.10;;;;;;5057323;28;20033;-79
2022/11/19 04:27:21;;;;;;;18.30;11.65;;;8.90;93.10;;;;;;5049965;28;20041;-78
2022/11/19 04:29:47;;;;;;;16.73;10.75;;;8.90;93.10;;;;;;5054135;28;20044;-77
2022/11/19 04:32:13;;;;;;;22.63;12.05;;;8.90;93.20;;;;;;5055106;28;20060;-79
2022/11/19 04:34:38;;;;;;;20.35;12.07;;;8.90;93.10;;;;;;5052652;28;20033;-77
2022/11/19 04:37:04;;;;;;;15.85;10.77;;;8.90;93.20;;;;;;5047858;28;20481;-78
2022/11/19 04:39:29;;;;;;;21.10;12.25;;;8.90;93.10;;;;;;5048339;28;20033;-79
2022/11/19 04:41:55;;;;;;;16.67;11.88;;;8.90;93.20;;;;;;5052923;28;20117;-79
2022/11/19 04:44:21;;;;;;;17.38;11.30;;;8.90;93.20;;;;;;5056635;28;20044;-79
2022/11/19 04:46:46;;;;;;;18.25;12.40;;;8.80;93.20;;;;;;5051080;28;20116;-79
2022/11/19 04:49:12;;;;;;;18.50;12.20;;;8.80;93.20;;;;;;5052223;28;20037;-77
2022/11/19 04:51:37;;;;;;;18.23;11.68;;;8.70;93.30;;;;;;5049242;28;20071;-78
2022/11/19 04:54:03;;;;;;;17.83;11.60;;;8.70;93.30;;;;;;5053714;28;20098;-80
2022/11/19 04:56:29;;;;;;;21.80;11.88;;;8.70;93.40;;;;;;5049267;28;20033;-78
2022/11/19 04:58:55;;;;;;;18.52;13.10;;;8.70;93.40;;;;;;5050219;28;20056;-78
2022/11/19 05:01:20;;;;;;;20.40;13.27;;;8.70;93.40;;;;;;5047876;28;20044;-77
2022/11/19 05:03:47;;;;;;;22.85;13.60;;;8.70;93.50;;;;;;5053315;28;20037;-78
2022/11/19 05:06:13;;;;;;;19.05;13.45;;;8.70;93.50;;;;;;5048575;28;20033;-78
2022/11/19 05:08:38;;;;;;;16.80;12.20;;;8.70;93.50;;;;;;5048172;28;20040;-80
2022/11/19 05:11:04;;;;;;;24.25;14.50;;;8.80;93.60;;;;;;5047376;28;20114;-78
2022/11/19 05:13:30;;;;;;;22.63;15.27;;;8.70;93.50;;;;;;5044255;28;20102;-77
2022/11/19 05:15:56;;;;;;;23.23;14.75;;;8.80;93.60;;;;;;5048206;28;20440;-77
2022/11/19 05:18:22;;;;;;;16.70;13.05;;;8.80;93.60;;;;;;5052618;28;20131;-75
2022/11/19 05:20:48;;;;;;;18.98;12.75;;;8.80;93.60;;;;;;5049724;28;20123;-79
2022/11/19 05:23:14;;;;;;;19.60;12.75;;;8.80;93.60;;;;;;5056481;28;20540;-78
2022/11/19 05:25:39;;;;;;;19.65;12.60;;;8.80;93.60;;;;;;5052660;28;20048;-78
2022/11/19 05:28:05;;;;;;;21.35;13.18;;;8.90;93.60;;;;;;5050608;28;20612;-78
2022/11/19 05:30:31;;;;;;;21.60;13.43;;;8.90;93.60;;;;;;5051815;28;20065;-79
2022/11/19 05:32:56;;;;;;;21.48;13.45;;;8.90;93.70;;;;;;5046171;28;20045;-78
2022/11/19 05:35:22;;;;;;;20.42;13.30;;;8.90;93.70;;;;;;5051334;28;20467;-77
2022/11/19 05:37:48;;;;;;;16.15;12.05;;;8.90;93.70;;;;;;5048164;28;20079;-79
2022/11/19 05:40:14;;;;;;;17.15;10.40;;;8.90;93.70;;;;;;5048953;28;20063;-77
2022/11/19 05:42:40;;;;;;;18.15;11.05;;;9.00;93.70;;;;;;5053135;28;20416;-79
2022/11/19 05:45:06;;;;;;;23.00;11.43;;;9.00;93.50;;;;;;5065809;28;20041;-77
2022/11/19 05:47:32;;;;;;;15.40;9.48;;;8.90;93.50;;;;;;5050221;28;20124;-81
2022/11/19 05:49:58;;;;;;;16.95;9.48;;;9.00;93.60;;;;;;5053329;28;20116;-77
2022/11/19 05:52:23;;;;;;;13.80;9.10;;;8.90;93.50;;;;;;5068056;28;20502;-78
2022/11/19 05:54:49;;;;;;;15.55;8.52;;;8.90;93.50;;;;;;5055485;28;20040;-78
2022/11/19 05:57:15;;;;;;;13.82;8.32;;;8.90;93.50;;;;;;5049196;28;20478;-78
2022/11/19 05:59:41;;;;;;;13.20;7.88;;;8.80;93.60;;;;;;5050904;28;20060;-78
2022/11/19 06:02:06;;;;;;;13.20;7.47;;;8.80;93.50;;;;;;5051733;28;20069;-77
2022/11/19 06:04:32;;;;;;;13.70;6.97;;;8.80;93.50;;;;;;5049856;28;20107;-77
2022/11/19 06:06:58;;;;;;;14.52;7.10;;;8.70;93.50;;;;;;5053001;28;20033;-79
2022/11/19 06:09:23;;;;;;;17.02;8.10;;;8.80;93.60;;;;;;5055420;28;20044;-77
2022/11/19 06:11:49;;;;;;;14.57;8.05;;;8.80;93.70;;;;;;5049839;28;20128;-77
2022/11/19 06:14:25;;;;;;;14.57;8.30;;;8.80;93.70;;;;;;5050619;28;20478;-77
2022/11/19 06:16:53;;;;;;;14.27;8.75;;;8.80;93.70;;;;;;5048113;28;20039;-77
2022/11/19 06:19:19;;;;;;;12.52;9.02;;;8.80;93.70;;;;;;5044591;28;20112;-78
2022/11/19 06:21:44;;;;;;;15.60;9.27;;;8.80;93.70;;;;;;5056422;28;20555;-78
2022/11/19 06:24:11;;;;;;;14.30;9.02;;;8.80;93.70;;;;;;5050356;28;20045;-76
2022/11/19 06:26:37;;;;;;;14.13;10.05;;;8.90;93.70;;;;;;5050971;28;20033;-78
2022/11/19 06:29:03;;;;;;;15.38;10.15;;;8.90;93.70;;;;;;5046513;28;20086;-78
2022/11/19 06:31:28;;;;;;;13.73;9.32;;;8.80;93.70;;;;;;5044498;28;20124;-76
2022/11/19 06:33:54;;;;;;;15.93;10.02;;;8.80;93.70;;;;;;5054565;28;20048;-76
2022/11/19 06:36:20;;;;;;;14.52;10.27;;;8.80;93.70;;;;;;5045903;28;20086;-76
2022/11/19 06:38:46;;;;;;;14.73;10.63;;;8.90;93.70;;;;;;5044928;28;20564;-79
2022/11/19 06:41:12;;;;;;;13.48;9.80;;;8.90;93.70;;;;;;5049696;28;20040;-78
2022/11/19 06:43:37;;;;;;;14.75;11.00;;;8.90;93.70;;;;;;5044114;28;20115;-78
2022/11/19 06:46:03;;;;;;;16.17;10.88;;;8.90;93.70;;;;;;5045223;28;20112;-79
2022/11/19 06:48:29;;;;;;;15.05;11.95;;;8.90;93.70;;;;;;5053112;28;20089;-79
2022/11/19 06:50:55;;;;;;;18.27;12.45;;;8.90;93.70;;;;;;5049346;28;20506;-78
2022/11/19 06:53:21;;;;;;;17.45;12.85;;;9.00;93.80;;;;;;5051912;28;20058;-78
2022/11/19 06:55:47;;;;;;;17.60;13.30;;;8.90;93.80;;;;;;5042493;28;20045;-78
2022/11/19 06:58:13;;;;;;;19.05;14.05;;;9.00;93.80;;;;;;5052615;28;20353;-79
2022/11/19 07:00:39;;;;;;;17.63;13.75;;;9.00;93.80;;;;;;5053980;28;20072;-77
2022/11/19 07:03:05;;;;;;;16.55;14.30;;;9.00;93.80;;;;;;5053057;28;20122;-76
2022/11/19 07:05:31;;;;;;;18.83;13.80;;;9.00;93.80;;;;;;5062012;28;20033;-76
2022/11/19 07:07:56;;;;;;;21.88;13.35;;;9.10;93.80;;;;;;5058791;28;20306;-77
2022/11/19 07:10:22;;;;;;;23.48;12.63;;;9.10;93.80;;;;;;5055255;28;20132;-78
2022/11/19 07:12:48;;;;;;;19.75;13.02;;;9.10;93.80;;;;;;5052162;28;20469;-78
2022/11/19 07:15:13;;;;;;;20.02;14.02;;;9.10;93.90;;;;;;5053644;28;20040;-78
2022/11/19 07:17:41;;;;;;;17.20;12.27;;;9.10;93.90;;;;;;5052366;28;20391;-79
2022/11/19 07:20:07;;;;;;;18.42;11.77;;;9.10;93.90;;;;;;5047818;28;20495;-78
2022/11/19 07:22:33;;;;;;;18.08;13.27;;;9.10;93.90;;;;;;5055510;28;20111;-78
2022/11/19 07:24:58;;;;;;;19.77;12.38;;;9.10;93.80;;;;;;5049500;28;20532;-77
2022/11/19 07:27:24;;;;;;;18.13;13.13;;;9.10;93.80;;;;;;5048408;28;20028;-78
2022/11/19 07:29:49;;;;;;;17.63;13.73;;;9.10;93.90;;;;;;5045384;28;20275;-77
2022/11/19 07:32:15;;;;;;;18.15;12.35;;;9.10;93.80;;;;;;5047600;28;20032;-76
2022/11/19 07:34:41;;;;;;;18.77;12.52;;;9.10;93.90;;;;;;5046349;28;20039;-77
2022/11/19 07:37:07;;;;;;;22.63;14.40;;;9.20;93.90;;;;;;5047041;28;20123;-76
2022/11/19 07:39:33;;;;;;;19.25;12.35;;;9.20;93.80;;;;;;5046747;28;20330;-73
2022/11/19 07:44:43;;;;;;;19.20;12.65;;;9.20;93.80;;;;;;5053807;28;20047;-75
2022/11/19 07:47:09;;;;;;;20.83;13.27;;;9.20;93.70;;;;;;5050344;28;20040;-76
2022/11/19 07:49:35;;;;;;;21.33;13.15;;;9.20;93.70;;;;;;5073889;28;20041;-78
2022/11/19 07:52:00;;;;;;;21.15;12.75;;;9.30;93.70;;;;;;5067688;28;20037;-78
2022/11/19 07:54:26;;;;;;;15.07;11.23;;;9.30;93.60;;;;;;5049155;28;20934;-75
2022/11/19 07:56:52;;;;;;;20.30;12.18;;;9.30;93.60;;;;;;5057616;28;20033;-74
2022/11/19 07:59:18;;;;;;;19.45;11.85;;;9.40;93.50;;;;;;5047764;28;20374;-77
2022/11/19 08:01:43;;;;;;;17.15;10.85;;;9.40;93.50;;;;;;5045631;28;20128;-74
2022/11/19 08:04:09;;;;;;;18.70;12.43;;;9.50;93.40;;;;;;5039849;28;20052;-76
2022/11/19 08:06:36;;;;;;;17.70;12.05;;;9.50;93.40;;;;;;5043424;28;20060;-77
2022/11/19 08:09:03;;;;;;;17.58;12.65;;;9.60;93.40;;;;;;5042533;28;20041;-77
2022/11/19 08:11:29;;;;;;;18.92;13.82;;;9.60;93.30;;;;;;5039746;28;20120;-76
2022/11/19 08:13:56;;;;;;;17.83;12.45;;;9.60;93.30;;;;;;5044092;28;20064;-77
2022/11/19 08:19:08;;;;;;;15.60;10.95;;;9.60;93.20;;;;;;5042276;28;20499;-76
2022/11/19 08:21:35;;;;;;;17.80;10.95;;;9.70;93.10;;;;;;5042345;28;20049;-75
2022/11/19 08:24:01;;;;;;;14.27;10.25;;;9.70;93.10;;;;;;5039960;28;20167;-77
2022/11/19 08:26:27;;;;;;;21.67;12.57;;;9.70;93.10;;;;;;5043637;28;20036;-77
2022/11/19 08:28:53;;;;;;;20.83;13.68;;;9.70;93.00;;;;;;5055261;28;20389;-76
2022/11/19 08:31:19;;;;;;;15.45;11.20;;;9.70;93.10;;;;;;5042603;28;20048;-77
2022/11/19 08:33:44;;;;;;;16.02;10.82;;;9.70;93.00;;;;;;5044374;28;20131;-76
2022/11/19 08:36:10;;;;;;;18.83;11.13;;;9.80;93.10;;;;;;5041061;28;20696;-75
2022/11/19 08:38:36;;;;;;;17.30;10.52;;;9.90;93.00;;;;;;5050182;28;20507;-77
2022/11/19 08:43:46;;;;;;;16.30;10.85;;;9.90;92.90;;;;;;5048603;28;20167;-77
2022/11/19 08:46:11;;;;;;;14.18;11.15;;;10.00;92.90;;;;;;5044118;28;20037;-74
2022/11/19 08:48:37;;;;;;;17.77;10.82;;;10.00;92.90;;;;;;5043163;28;20419;-76
2022/11/19 08:51:04;;;;;;;19.80;9.82;;;10.10;92.80;;;;;;5043553;28;20500;-77
2022/11/19 08:53:30;;;;;;;15.82;9.00;;;10.10;92.70;;;;;;5045027;28;20111;-77
2022/11/19 08:55:55;;;;;;;14.50;10.38;;;10.10;92.60;;;;;;5049709;28;20451;-78
2022/11/19 08:58:21;;;;;;;17.00;9.75;;;10.20;92.50;;;;;;5047241;28;20041;-78
2022/11/19 09:00:48;;;;;;;13.55;9.10;;;10.20;92.40;;;;;;5048828;28;20454;-74
2022/11/19 09:03:14;;;;;;;16.25;9.50;;;10.20;92.20;;;;;;5043267;28;20075;-75
2022/11/19 09:05:40;;;;;;;15.00;9.98;;;10.20;92.20;;;;;;5044824;28;20049;-76
2022/11/19 09:08:06;;;;;;;16.20;9.70;;;10.20;92.10;;;;;;5042081;28;20467;-76
2022/11/19 09:10:32;;;;;;;19.02;11.05;;;10.30;92.00;;;;;;5042751;28;20086;-74
2022/11/19 09:13:00;;;;;;;15.63;10.18;;;10.20;91.90;;;;;;5042124;28;20045;-76
2022/11/19 09:15:25;;;;;;;17.58;10.38;;;10.20;91.90;;;;;;5038695;28;20548;-76
2022/11/19 09:17:51;;;;;;;22.20;11.68;;;10.30;92.00;;;;;;5042553;28;20025;-75
2022/11/19 09:20:17;;;;;;;16.35;10.70;;;10.30;91.90;;;;;;5043418;28;20036;-76
2022/11/19 09:22:42;;;;;;;16.40;10.20;;;10.30;92.00;;;;;;5040896;28;20033;-74
2022/11/19 09:25:08;;;;;;;17.55;10.00;;;10.30;91.90;;;;;;5042085;28;20029;-78
2022/11/19 09:27:35;;;;;;;19.35;10.60;;;10.30;92.00;;;;;;5041078;28;20499;-76
2022/11/19 09:30:01;;;;;;;17.70;11.57;;;10.30;92.00;;;;;;5041017;28;20059;-77
2022/11/19 09:32:27;;;;;;;21.77;12.73;;;10.30;91.90;;;;;;5042427;28;20025;-79
2022/11/19 09:34:53;;;;;;;17.08;12.05;;;10.30;92.00;;;;;;5042632;28;20037;-76
2022/11/19 09:37:19;;;;;;;18.27;12.82;;;10.30;92.00;;;;;;5041165;28;20385;-75
2022/11/19 09:39:44;;;;;;;19.00;12.32;;;10.40;92.00;;;;;;5042227;28;20048;-76
2022/11/19 09:42:53;;;;;;;18.30;12.93;;;10.40;91.90;;;;;;5043614;28;20047;-75
2022/11/19 09:45:25;;;;;;;22.60;15.82;;;10.40;91.80;;;;;;5039889;28;20033;-76
2022/11/19 09:48:28;;;;;;;23.00;16.90;;;10.30;91.90;;;;;;5044065;28;20045;-77
2022/11/19 09:51:02;;;;;;;25.33;18.48;;;10.40;91.80;;;;;;5042690;28;20043;-75
2022/11/19 09:53:33;;;;;;;32.90;25.02;;;10.40;91.70;;;;;;5043227;28;20540;-76
2022/11/19 09:55:59;;;;;;;30.80;24.45;;;10.20;91.50;;;;;;5044197;28;20041;-75
2022/11/19 09:58:40;;;;;;;31.05;23.02;;;10.20;91.80;;;;;;5043287;28;20061;-78
2022/11/19 10:01:09;;;;;;;28.83;21.90;;;10.10;91.80;;;;;;5044367;28;20116;-76
2022/11/19 10:03:40;;;;;;;27.73;22.90;;;10.10;91.80;;;;;;5045073;28;20547;-75
2022/11/19 10:06:20;;;;;;;29.27;22.92;;;10.00;91.90;;;;;;5052976;28;20049;-75
2022/11/19 10:09:29;;;;;;;29.58;22.73;;;9.90;92.10;;;;;;5060639;28;20029;-77
2022/11/19 10:12:26;;;;;;;26.35;22.58;;;9.80;92.20;;;;;;5042940;28;20039;-76
2022/11/19 10:14:52;;;;;;;24.65;21.52;;;9.70;92.40;;;;;;5043609;28;20069;-78
2022/11/19 10:17:18;;;;;;;27.85;22.02;;;9.70;92.80;;;;;;5037571;28;20438;-78
2022/11/19 10:20:05;;;;;;;21.02;17.33;;;9.60;92.80;;;;;;5042685;28;20043;-76
2022/11/19 10:22:51;;;;;;;17.80;14.57;;;9.60;92.70;;;;;;5041435;28;20025;-77
2022/11/19 10:25:21;;;;;;;17.80;15.23;;;9.40;92.10;;;;;;5042011;28;20033;-75
2022/11/19 10:27:59;;;;;;;15.88;13.65;;;9.40;92.20;;;;;;5042495;28;20427;-76
2022/11/19 10:30:27;;;;;;;16.17;14.23;;;9.30;91.70;;;;;;5038824;28;20673;-76
2022/11/19 10:33:02;;;;;;;16.27;13.50;;;9.20;91.60;;;;;;5040182;28;20040;-77
2022/11/19 10:35:42;;;;;;;14.02;10.85;;;9.10;91.30;;;;;;5039843;28;20048;-76
2022/11/19 10:38:32;;;;;;;12.52;10.10;;;9.00;90.90;;;;;;5038828;28;20536;-76
2022/11/19 10:41:04;;;;;;;13.32;10.02;;;8.70;90.40;;;;;;5042760;28;20087;-77
2022/11/19 10:43:45;;;;;;;14.05;10.23;;;8.50;90.20;;;;;;5038536;28;20043;-76
2022/11/19 10:46:16;;;;;;;13.20;10.65;;;8.40;90.90;;;;;;5038005;28;20029;-75
2022/11/19 10:48:46;;;;;;;13.55;10.70;;;8.50;90.80;;;;;;5040721;28;20481;-77
2022/11/19 10:51:19;;;;;;;14.02;11.65;;;8.30;90.60;;;;;;5046813;28;20519;-79
2022/11/19 10:53:45;;;;;;;15.10;11.35;;;8.30;91.00;;;;;;5045850;28;20036;-79
2022/11/19 10:56:16;;;;;;;15.90;11.80;;;8.30;91.10;;;;;;5041360;28;20113;-75
2022/11/19 10:58:47;;;;;;;15.20;11.50;;;8.30;90.80;;;;;;5039082;28;20076;-79
2022/11/19 11:01:28;;;;;;;16.52;13.10;;;8.10;91.00;;;;;;5054251;28;20116;-76
2022/11/19 11:04:14;;;;;;;17.02;13.55;;;8.00;91.10;;;;;;5040923;28;20057;-77
2022/11/19 11:06:51;;;;;;;18.08;13.88;;;7.70;91.60;;;;;;5040229;28;20552;-78
2022/11/19 11:09:40;;;;;;;17.88;14.20;;;7.80;92.00;;;;;;5041215;28;20055;-75
2022/11/19 11:15:19;;;;;;;19.30;15.57;;;7.60;92.20;;;;;;5040823;28;20043;-76
2022/11/19 11:17:46;;;;;;;18.27;15.13;;;7.60;92.30;;;;;;5040152;28;20082;-78
2022/11/19 11:20:15;;;;;;;17.33;14.75;;;7.70;92.30;;;;;;5040465;28;20036;-77
2022/11/19 11:22:42;;;;;;;15.52;13.52;;;7.70;92.40;;;;;;5055839;28;20055;-78
2022/11/19 11:25:23;;;;;;;15.68;13.27;;;7.80;92.20;;;;;;5035474;28;20029;-80
2022/11/19 11:28:13;;;;;;;16.60;12.77;;;7.80;92.00;;;;;;5036649;28;20728;-81
2022/11/19 11:31:26;;;;;;;15.43;11.43;;;7.90;91.80;;;;;;5035462;28;20056;-78
2022/11/19 11:33:56;;;;;;;14.90;10.73;;;7.90;91.40;;;;;;5023135;28;20437;-78
2022/11/19 11:36:27;;;;;;;13.35;11.15;;;7.90;91.30;;;;;;5042439;28;20048;-81
2022/11/19 11:38:56;;;;;;;14.57;11.10;;;7.90;91.00;;;;;;5040700;28;21409;-80
2022/11/19 11:41:32;;;;;;;12.70;10.27;;;7.90;90.90;;;;;;5041321;28;20071;-81
2022/11/19 11:44:01;;;;;;;12.00;9.65;;;7.80;90.50;;;;;;5047371;28;20899;-79
2022/11/19 11:46:38;;;;;;;12.15;9.45;;;7.50;90.70;;;;;;5039267;28;20058;-83
2022/11/19 11:49:06;;;;;;;12.98;10.07;;;7.40;91.20;;;;;;5054929;28;20119;-84
2022/11/19 11:51:35;;;;;;;15.35;11.35;;;7.30;91.30;;;;;;5042592;28;20044;-78
2022/11/19 11:54:15;;;;;;;15.43;12.30;;;7.00;91.40;;;;;;5044311;28;20091;-80
2022/11/19 11:56:41;;;;;;;15.70;12.60;;;6.70;91.80;;;;;;5037783;28;20397;-77
2022/11/19 11:59:24;;;;;;;17.15;13.13;;;6.70;92.20;;;;;;5055269;28;20040;-80
2022/11/19 12:02:00;;;;;;;17.13;12.98;;;6.70;92.20;;;;;;5041348;28;20045;-77
2022/11/19 12:04:26;;;;;;;19.08;14.55;;;6.70;92.30;;;;;;5040052;28;20027;-81
2022/11/19 12:07:30;;;;;;;19.15;15.00;;;6.60;92.40;;;;;;5041447;28;20025;-85
2022/11/19 12:10:09;;;;;;;18.92;14.90;;;6.80;92.70;;;;;;5040497;28;20247;-81
2022/11/19 12:12:43;;;;;;;19.70;15.20;;;6.80;92.40;;;;;;5040692;28;20041;-81
2022/11/19 12:15:12;;;;;;;;;;;6.60;92.20;;;;;;5052615;28;20076;-82
2022/11/19 12:18:08;;;;;;;19.42;14.63;;;6.70;92.40;;;;;;5039851;28;19920;-81
2022/11/19 12:20:46;;;;;;;22.13;15.52;;;6.80;92.20;;;;;;5040416;28;20045;-81
2022/11/19 12:23:22;;;;;;;21.52;15.82;;;6.50;92.00;;;;;;5038736;28;20029;-79
2022/11/19 12:26:11;;;;;;;20.30;16.20;;;6.40;92.00;;;;;;5041234;28;20029;-79
2022/11/19 12:29:03;;;;;;;21.25;16.80;;;6.30;92.00;;;;;;5041343;28;20484;-81
2022/11/19 12:31:47;;;;;;;22.13;17.75;;;6.20;92.30;;;;;;5037537;28;21690;-81
2022/11/19 12:34:25;;;;;;;23.92;17.73;;;6.10;92.50;;;;;;5044646;28;20127;-81
2022/11/19 12:37:15;;;;;;;23.42;18.60;;;6.20;92.70;;;;;;5043111;28;20076;-79
2022/11/19 12:39:56;;;;;;;24.88;19.15;;;6.20;92.70;;;;;;5059316;28;20053;-82
2022/11/19 12:42:46;;;;;;;24.30;19.15;;;6.10;92.40;;;;;;5042229;28;20110;-82
2022/11/19 12:45:35;;;;;;;25.63;18.65;;;6.10;92.40;;;;;;5042124;28;20400;-82
2022/11/19 12:48:30;;;;;;;24.48;19.50;;;6.10;92.40;;;;;;5042284;28;20041;-80
2022/11/19 12:51:04;;;;;;;25.25;19.88;;;6.00;92.50;;;;;;5057415;28;20037;-81
2022/11/19 12:54:29;;;;;;;27.73;19.77;;;6.10;92.60;;;;;;5057245;28;20049;-77
2022/11/19 12:57:07;;;;;;;26.95;19.27;;;6.20;92.40;;;;;;5016483;28;20033;-79
2022/11/19 12:59:46;;;;;;;27.65;20.92;;;6.10;92.20;;;;;;5059614;28;20041;-82
2022/11/19 13:02:25;;;;;;;26.70;20.30;;;6.10;92.20;;;;;;5047639;28;20029;-82
2022/11/19 13:05:01;;;;;;;28.60;20.88;;;6.10;92.20;;;;;;5045282;28;20048;-83
2022/11/19 13:07:34;;;;;;;30.83;23.08;;;5.90;92.10;;;;;;5041240;28;20045;-82
2022/11/19 13:10:22;;;;;;;32.95;24.05;;;5.80;92.30;;;;;;5044915;28;20128;-82
2022/11/19 13:12:52;;;;;;;34.83;24.63;;;5.80;92.40;;;;;;5043323;28;20055;-83
2022/11/19 13:15:41;;;;;;;33.40;23.50;;;5.80;92.10;;;;;;5042141;28;20059;-83
2022/11/19 13:18:14;;;;;;;31.77;22.98;;;5.70;92.20;;;;;;5041473;28;20088;-82
2022/11/19 13:20:42;;;;;;;34.85;24.95;;;5.70;92.00;;;;;;5041555;28;20142;-83
2022/11/19 13:23:15;;;;;;;32.70;24.20;;;5.80;91.90;;;;;;5042607;28;20496;-79
2022/11/19 13:26:08;;;;;;;34.00;24.00;;;5.80;91.90;;;;;;5044129;28;20173;-82